Riverside, CA (92504)

9:38 AM PST on February 07, 2016 (GMT -0800)
Arlington Heights | | Change Station
CLOSE
Current Station
Personal Weather Station
Location: Riverside, CA
Elevation: 902 ft
Nearby Weather Stations
Active Advisory: High Wind Warning

Elev 902 ft 33.91 °N, 117.42 °W | Updated 11 minutes ago

Clear
Clear
71.0 °F
Feels Like 74 °F
N
3.0
Wind Variable Wind from NE
Gusts 8.0 mph

Today
High -- | Low -- °F
--% Chance of Precip.
Yesterday
High -- | Low -- °F
Precip. -- in
Pressure 30.16 in
Visibility 10.0 miles
Clouds Clear
Heat Index 74 °F
Dew Point 25 °F
Humidity 18%
Rainfall 0.00 in
Snow Depth Not available.
6:42 AM 5:25 PM
Waning Crescent, 1% visible
METAR KRAL 071653Z 09005KT 10SM CLR 18/M04 A3020 RMK AO2 SLP213 T01831039
Pressure 30.16 in
Visibility 10.0 miles
Clouds Clear
Heat Index 74 °F
Dew Point 25 °F
Humidity 18%
Rainfall 0.00 in
Snow Depth Not available.
6:42 AM 5:25 PM
Waning Crescent, 1% visible
METAR KRAL 071653Z 09005KT 10SM CLR 18/M04 A3020 RMK AO2 SLP213 T01831039

10-Day Weather Forecast

Almanac

Astronomy

Feb. 07, 2016 Rise Set
Actual Time
Civil Twilight
Nautical Twilight
Astronomical Twilight
Moon
Length of Visible Light
Length of Day
Tomorrow will be .
, % of the Moon is Illuminated

Today's Extremes

State Highs State Lows

Community

WunderPhotos

Upload Photos

1,891,244 photos uploaded!

WunderBlog® & News

Nearby

Air Quality

  Air Quality AQ Index Pollutant
Not available.

Snow Depth

Station Depth Elevation

Earthquake Activity

City Distance Mag. Time & Date
Minimum magnitude displayed is 2.5.

Coastal Water Temperatures

Place Temperature

Stations

Nearby Weather Stations

Station Location Temp. Windchill Dew Point Humidity Wind Precip. Elev Updated Type
                   

Watches & Warnings

High Wind Warning
Issued: 3:13 AM PST Feb. 7, 2016 – National Weather Service

... High Wind Warning in effect from 1 PM this afternoon to 4 PM
PST Monday...

The National Weather Service in San Diego has issued a High Wind
Warning... which is in effect from 1 PM this afternoon to 4 PM PST
Monday. The high wind watch is no longer in effect.

* Winds... east to northeast 30 to 40 mph with gusts 50 to 65 mph.
Locally higher gusts will be possible.

* Timing... winds increasing through today... peaking early Monday
morning... then weakening into Tuesday.

* Location... along the coastal mountain slopes and foothills and
below favored passes and canyons.

* Visibility... locally reduced in blowing dust.

* Impacts... strong cross winds will be a potential hazard for high
profile vehicles. Broken tree limbs and other debris will be
possible.

* Outlook... winds of advisory strength may develop earlier today
in some wind-prone areas and continue into Tuesday morning.

Precautionary/preparedness actions...

A High Wind Warning means a hazardous high wind event is expected
or occurring. Sustained wind speeds of at least 40 mph or gusts
of 58 mph or more can lead to property damage.